createdAt,value
2023-01-05T00:03:26.932Z,-7.07
2023-01-05T00:08:36.406Z,-7.12
2023-01-05T00:13:58.292Z,-7.23
2023-01-05T00:19:19.486Z,-7.28
2023-01-05T00:24:22.003Z,-7.25
2023-01-05T00:29:24.523Z,-7.32
2023-01-05T00:34:26.976Z,-7.26
2023-01-05T00:39:29.431Z,-7.26
2023-01-05T00:44:31.907Z,-7.29
2023-01-05T00:49:34.495Z,-7.34
2023-01-05T00:54:36.949Z,-7.37
2023-01-05T00:59:39.943Z,-7.43
2023-01-05T01:04:42.493Z,-7.52
2023-01-05T01:09:44.962Z,-7.60
2023-01-05T01:14:48.595Z,-7.54
2023-01-05T01:19:51.167Z,-7.56
2023-01-05T01:24:53.697Z,-7.58
2023-01-05T01:29:59.227Z,-7.61
2023-01-05T01:35:01.748Z,-7.58
2023-01-05T01:40:05.461Z,-7.55
2023-01-05T01:45:21.681Z,-7.52
2023-01-05T01:50:24.326Z,-7.47
2023-01-05T01:55:27.733Z,-7.45
2023-01-05T02:00:30.345Z,-7.36
2023-01-05T02:05:33.459Z,-7.30
2023-01-05T02:10:49.076Z,-7.29
2023-01-05T02:16:02.205Z,-7.30
2023-01-05T02:21:23.466Z,-7.26
2023-01-05T02:26:47.513Z,-7.28
2023-01-05T02:31:58.229Z,-7.26
2023-01-05T02:37:04.945Z,-7.27
2023-01-05T02:42:14.480Z,-7.29
2023-01-05T02:47:28.269Z,-7.28
2023-01-05T02:52:36.391Z,-7.28
2023-01-05T02:57:47.423Z,-7.27
2023-01-05T03:02:56.313Z,-7.28
2023-01-05T03:08:08.333Z,-7.23
2023-01-05T03:13:34.704Z,-7.21
2023-01-05T03:19:00.318Z,-7.23
2023-01-05T03:24:22.645Z,-7.26
2023-01-05T03:29:46.258Z,-7.24
2023-01-05T03:35:12.080Z,-7.13
2023-01-05T03:40:22.753Z,-7.06
2023-01-05T03:45:28.960Z,-6.99
2023-01-05T03:50:31.550Z,-6.87
2023-01-05T03:55:35.429Z,-6.76
2023-01-05T04:00:38.058Z,-6.55
2023-01-05T04:05:44.721Z,-6.50
2023-01-05T04:10:47.779Z,-6.45
2023-01-05T04:15:50.532Z,-6.40
2023-01-05T04:20:53.846Z,-6.35
2023-01-05T04:25:57.604Z,-6.29
2023-01-05T04:31:00.576Z,-6.21
2023-01-05T04:36:05.441Z,-6.15
2023-01-05T04:41:07.975Z,-6.03
2023-01-05T04:46:10.668Z,-5.94
2023-01-05T04:51:13.551Z,-5.86
2023-01-05T04:56:16.192Z,-5.79
2023-01-05T05:01:20.526Z,-5.78
2023-01-05T05:06:27.520Z,-5.91
2023-01-05T05:11:31.786Z,-6.01
2023-01-05T05:16:34.357Z,-5.90
2023-01-05T05:21:37.630Z,-5.86
2023-01-05T05:26:40.577Z,-5.54
2023-01-05T05:31:43.402Z,-5.41
2023-01-05T05:36:45.873Z,-5.29
2023-01-05T05:41:48.428Z,-5.23
2023-01-05T05:46:51.151Z,-5.27
2023-01-05T05:51:53.698Z,-5.05
2023-01-05T05:56:56.206Z,-4.92
2023-01-05T06:01:58.827Z,-4.83
2023-01-05T06:07:01.331Z,-4.76
2023-01-05T06:12:03.939Z,-4.70
2023-01-05T06:17:06.529Z,-4.59
2023-01-05T06:22:08.979Z,-4.54
2023-01-05T06:27:11.467Z,-4.50
2023-01-05T06:32:13.926Z,-4.46
2023-01-05T06:37:16.344Z,-4.44
2023-01-05T06:42:23.280Z,-4.38
2023-01-05T06:47:26.119Z,-4.25
2023-01-05T06:52:28.572Z,-4.10
2023-01-05T06:57:31.010Z,-3.90
2023-01-05T07:02:33.587Z,-3.76
2023-01-05T07:07:36.313Z,-3.81
2023-01-05T07:12:39.175Z,-3.81
2023-01-05T07:17:41.643Z,-3.83
2023-01-05T07:22:44.052Z,-3.80
2023-01-05T07:27:50.535Z,-3.75
2023-01-05T07:32:53.070Z,-3.89
2023-01-05T07:37:58.858Z,-3.62
2023-01-05T07:43:01.625Z,-3.72
2023-01-05T07:48:04.293Z,-3.80
2023-01-05T07:53:06.768Z,-3.77
2023-01-05T07:58:09.244Z,-3.78
2023-01-05T08:03:11.619Z,-3.74
2023-01-05T08:08:19.073Z,-3.72
2023-01-05T08:13:43.647Z,-3.69
2023-01-05T08:18:46.204Z,-3.68
2023-01-05T08:23:49.816Z,-3.66
2023-01-05T08:28:52.785Z,-3.65
2023-01-05T08:33:56.102Z,-3.60
2023-01-05T08:38:59.049Z,-3.67
2023-01-05T08:44:02.019Z,-3.88
2023-01-05T08:49:07.528Z,-3.94
2023-01-05T08:54:09.951Z,-3.82
2023-01-05T08:59:13.335Z,-3.84
2023-01-05T09:04:16.364Z,-3.91
2023-01-05T09:09:18.963Z,-3.95
2023-01-05T09:14:21.530Z,-3.90
2023-01-05T09:19:24.180Z,-3.87
2023-01-05T09:24:26.824Z,-3.86
2023-01-05T09:29:29.318Z,-3.86
2023-01-05T09:34:32.097Z,-3.89
2023-01-05T09:39:34.599Z,-3.92
2023-01-05T09:44:38.119Z,-3.95
2023-01-05T09:49:40.656Z,-4.02
2023-01-05T09:54:43.133Z,-4.12
2023-01-05T09:59:52.486Z,-4.23
2023-01-05T10:04:56.535Z,-4.35
2023-01-05T10:10:00.125Z,-4.40
2023-01-05T10:15:04.730Z,-4.44
2023-01-05T10:20:14.608Z,-4.43
2023-01-05T10:25:22.427Z,-4.43
2023-01-05T10:30:26.216Z,-4.39
2023-01-05T10:36:00.306Z,-4.38
2023-01-05T10:41:06.491Z,-4.37
2023-01-05T10:51:34.251Z,-4.25
2023-01-05T10:56:36.805Z,-4.24
2023-01-05T11:01:39.453Z,-4.26
2023-01-05T11:06:42.013Z,-4.22
2023-01-05T11:11:44.879Z,-4.24
2023-01-05T11:16:48.465Z,-4.16
2023-01-05T11:21:54.032Z,-4.15
2023-01-05T11:27:03.783Z,-4.22
2023-01-05T11:32:06.893Z,-4.25
2023-01-05T11:37:12.489Z,-4.37
2023-01-05T11:42:20.020Z,-4.50
2023-01-05T11:47:27.235Z,-4.61
2023-01-05T11:52:37.169Z,-4.67
2023-01-05T11:57:39.698Z,-4.74
2023-01-05T12:03:05.491Z,-4.75
2023-01-05T12:08:12.543Z,-4.79
2023-01-05T12:13:29.034Z,-4.93
2023-01-05T12:18:49.928Z,-5.02
2023-01-05T12:24:11.031Z,-5.17
2023-01-05T12:31:06.403Z,-5.22
2023-01-05T12:35:17.804Z,-5.27
2023-01-05T12:40:24.110Z,-5.33
2023-01-05T12:45:45.035Z,-5.32
2023-01-05T12:50:49.223Z,-5.33
2023-01-05T12:55:56.068Z,-5.27
2023-01-05T13:00:58.710Z,-5.22
2023-01-05T13:06:07.208Z,-5.21
2023-01-05T13:11:28.031Z,-5.25
2023-01-05T13:16:37.352Z,-5.23
2023-01-05T13:21:40.295Z,-5.19
2023-01-05T13:26:42.749Z,-5.25
2023-01-05T13:31:48.237Z,-5.20
2023-01-05T13:36:59.883Z,-5.21
2023-01-05T13:42:23.656Z,-5.14
2023-01-05T13:47:29.346Z,-5.09
2023-01-05T13:52:38.589Z,-5.04
2023-01-05T13:57:41.618Z,-5.03
2023-01-05T14:02:44.979Z,-5.13
2023-01-05T14:07:47.440Z,-5.18
2023-01-05T14:12:50.668Z,-5.19
2023-01-05T14:17:56.262Z,-5.20
2023-01-05T14:22:58.854Z,-5.24
2023-01-05T14:28:16.499Z,-5.31
2023-01-05T14:33:19.893Z,-5.34
2023-01-05T14:38:23.344Z,-5.34
2023-01-05T14:43:32.880Z,-5.41
2023-01-05T14:49:07.680Z,-5.42
2023-01-05T14:54:10.350Z,-5.49
2023-01-05T14:59:23.826Z,-5.54
2023-01-05T15:04:28.506Z,-5.53
2023-01-05T15:09:37.638Z,-5.62
2023-01-05T15:14:47.342Z,-5.66
2023-01-05T15:20:09.668Z,-5.72
2023-01-05T15:25:30.979Z,-5.79
2023-01-05T15:30:36.654Z,-5.89
2023-01-05T15:35:50.133Z,-5.94
2023-01-05T15:40:57.826Z,-5.96
2023-01-05T15:46:00.732Z,-5.95
2023-01-05T15:51:03.302Z,-6.00
2023-01-05T15:56:07.171Z,-6.13
2023-01-05T16:01:15.694Z,-6.21
2023-01-05T16:06:20.543Z,-6.29
2023-01-05T16:11:27.242Z,-6.31
2023-01-05T16:21:55.264Z,-6.37
2023-01-05T16:26:57.768Z,-6.39
2023-01-05T16:32:00.410Z,-6.37
2023-01-05T16:37:02.945Z,-6.38
2023-01-05T16:42:25.142Z,-6.50
2023-01-05T16:47:33.637Z,-6.54
2023-01-05T16:52:46.050Z,-6.54
2023-01-05T17:01:48.378Z,-6.63
2023-01-05T17:06:51.856Z,-6.68
2023-01-05T17:11:54.691Z,-6.69
2023-01-05T17:17:02.852Z,-6.72
2023-01-05T17:22:07.704Z,-6.70
2023-01-05T17:32:20.780Z,-7.13
2023-01-05T17:37:23.660Z,-7.03
2023-01-05T17:42:44.315Z,-7.15
2023-01-05T17:47:47.699Z,-7.27
2023-01-05T17:52:50.590Z,-7.33
2023-01-05T17:57:53.242Z,-7.56
2023-01-05T18:02:56.420Z,-7.65
2023-01-05T18:07:59.450Z,-7.61
2023-01-05T18:13:02.279Z,-7.69
2023-01-05T18:18:05.123Z,-7.69
2023-01-05T18:23:08.676Z,-7.81
2023-01-05T18:28:11.486Z,-7.82
2023-01-05T18:33:14.152Z,-8.17
2023-01-05T18:38:17.087Z,-8.14
2023-01-05T18:43:19.834Z,-8.18
2023-01-05T18:48:23.029Z,-8.23
2023-01-05T18:53:25.873Z,-8.30
2023-01-05T18:58:28.826Z,-8.40
2023-01-05T19:03:31.783Z,-8.47
2023-01-05T19:08:34.665Z,-8.58
2023-01-05T19:13:38.110Z,-8.63
2023-01-05T19:18:41.048Z,-8.56
2023-01-05T19:23:43.783Z,-8.44
2023-01-05T19:28:46.449Z,-8.57
2023-01-05T19:33:50.021Z,-8.36
2023-01-05T19:38:55.649Z,-8.22
2023-01-05T19:43:58.530Z,-8.19
2023-01-05T19:49:01.352Z,-8.18
2023-01-05T19:54:05.146Z,-8.09
2023-01-05T19:59:13.491Z,-8.13
2023-01-05T20:04:16.391Z,-8.02
2023-01-05T20:09:19.811Z,-8.03
2023-01-05T20:14:27.640Z,-8.03
2023-01-05T20:19:31.599Z,-8.16
2023-01-05T20:24:36.517Z,-8.08
2023-01-05T20:29:40.815Z,-8.05
2023-01-05T20:34:45.416Z,-8.06
2023-01-05T20:39:47.861Z,-8.07
2023-01-05T20:44:51.173Z,-8.09
2023-01-05T20:49:53.865Z,-8.09
2023-01-05T20:54:56.829Z,-8.31
2023-01-05T20:59:59.405Z,-8.15
2023-01-05T21:05:02.290Z,-8.25
2023-01-05T21:10:05.460Z,-8.23
2023-01-05T21:15:08.721Z,-8.22
2023-01-05T21:20:11.458Z,-8.35
2023-01-05T21:25:14.573Z,-8.24
2023-01-05T21:30:17.785Z,-8.28
2023-01-05T21:35:20.472Z,-8.28
2023-01-05T21:40:24.359Z,-8.39
2023-01-05T21:45:27.106Z,-8.39
2023-01-05T21:50:48.412Z,-8.40
2023-01-05T21:56:09.845Z,-8.49
2023-01-05T22:01:12.890Z,-8.59
2023-01-05T22:06:15.640Z,-8.63
2023-01-05T22:11:18.329Z,-8.74
2023-01-05T22:16:21.093Z,-8.81
2023-01-05T22:21:23.856Z,-8.88
2023-01-05T22:26:26.601Z,-8.93
2023-01-05T22:31:30.624Z,-8.98
2023-01-05T22:36:33.348Z,-8.97
2023-01-05T22:41:36.192Z,-8.98
2023-01-05T22:46:38.835Z,-9.03
2023-01-05T22:51:41.624Z,-9.24
2023-01-05T22:56:44.225Z,-9.38
2023-01-05T23:01:48.075Z,-9.59
2023-01-05T23:06:50.723Z,-9.66
2023-01-05T23:11:53.642Z,-9.66
2023-01-05T23:16:56.408Z,-9.73
2023-01-05T23:22:02.202Z,-9.82
2023-01-05T23:27:04.819Z,-9.88
2023-01-05T23:32:07.575Z,-10.01
2023-01-05T23:37:10.306Z,-9.99
2023-01-05T23:42:32.938Z,-10.06
2023-01-05T23:47:35.561Z,-9.90
2023-01-05T23:52:38.225Z,-9.83
2023-01-05T23:57:40.873Z,-9.83
